Time;durP1;ratioP1;P1;durP2;ratioP2;P2;SDS_P1;SDS_P2;PMS_P1;PMS_P2;Temp;Humidity;BMP_temperature;BMP_pressure;BME280_temperature;BME280_humidity;BME280_pressure;Samples;Min_cycle;Max_cycle;Signal;HPM_P1;HPM_P2
2020/12/02 00:01:16;;;;;;;6.18;4.35;;;;;13.20;101919.00;;;;5108545;28;20197;-78
2020/12/02 00:03:50;;;;;;;5.90;4.38;;;;;13.20;101919.00;;;;5109234;28;20270;-78
2020/12/02 00:06:18;;;;;;;6.80;4.03;;;;;13.20;101931.00;;;;5091405;28;20205;-78
2020/12/02 00:08:47;;;;;;;8.00;5.10;;;;;13.20;101921.00;;;;5089011;28;20198;-78
2020/12/02 00:11:16;;;;;;;6.45;4.63;;;;;13.20;101928.00;;;;5098197;28;20202;-79
2020/12/02 00:13:46;;;;;;;6.45;3.97;;;;;13.10;101926.00;;;;5108435;28;20223;-78
2020/12/02 00:16:15;;;;;;;6.00;3.78;;;;;13.10;101920.00;;;;5089828;28;20195;-78
2020/12/02 00:18:42;;;;;;;6.97;4.80;;;;;13.10;101917.00;;;;5093645;28;20678;-78
2020/12/02 00:21:09;;;;;;;10.25;5.75;;;;;13.10;101917.00;;;;5107210;28;20200;-78
2020/12/02 00:23:36;;;;;;;7.82;4.82;;;;;13.10;101924.00;;;;5107998;28;20758;-78
2020/12/02 00:26:03;;;;;;;10.52;5.45;;;;;13.00;101919.00;;;;5108493;28;20197;-78
2020/12/02 00:28:31;;;;;;;7.05;4.90;;;;;13.00;101918.00;;;;5092765;28;20217;-78
2020/12/02 00:30:58;;;;;;;7.13;4.75;;;;;13.00;101917.00;;;;5092753;28;20200;-78
2020/12/02 00:33:26;;;;;;;7.00;4.72;;;;;13.00;101915.00;;;;5108793;28;20208;-78
2020/12/02 00:35:53;;;;;;;7.70;4.78;;;;;13.00;101914.00;;;;5104677;28;20189;-78
2020/12/02 00:38:22;;;;;;;8.02;5.07;;;;;13.00;101926.00;;;;5088194;28;20198;-79
2020/12/02 00:40:49;;;;;;;7.55;4.45;;;;;13.00;101922.00;;;;5073073;28;20768;-78
2020/12/02 00:43:20;;;;;;;7.50;4.97;;;;;13.00;101919.00;;;;5088329;28;20194;-78
2020/12/02 00:45:48;;;;;;;8.98;4.68;;;;;13.00;101934.00;;;;5088739;28;20199;-77
2020/12/02 00:48:18;;;;;;;9.07;5.43;;;;;13.00;101924.00;;;;5087857;28;20669;-78
2020/12/02 00:50:45;;;;;;;7.88;5.22;;;;;13.00;101917.00;;;;5089283;28;20206;-78
2020/12/02 00:53:14;;;;;;;8.80;5.45;;;;;13.00;101913.00;;;;5088684;28;20202;-78
2020/12/02 00:55:43;;;;;;;9.40;5.80;;;;;13.00;101915.00;;;;5092558;28;20209;-78
2020/12/02 00:58:15;;;;;;;8.00;5.50;;;;;12.90;101916.00;;;;5108390;28;20702;-78
2020/12/02 01:00:42;;;;;;;8.40;5.53;;;;;13.00;101908.00;;;;5082455;28;20731;-78
2020/12/02 01:03:17;;;;;;;9.10;5.15;;;;;12.90;101909.00;;;;5087519;28;20209;-78
2020/12/02 01:05:46;;;;;;;8.55;5.22;;;;;12.90;101910.00;;;;5099855;28;20189;-78
2020/12/02 01:08:23;;;;;;;10.52;5.28;;;;;12.90;101912.00;;;;5108536;28;20611;-78
2020/12/02 01:10:57;;;;;;;7.57;4.55;;;;;12.90;101916.00;;;;5106413;28;20190;-78
2020/12/02 01:13:24;;;;;;;8.68;5.30;;;;;12.90;101917.00;;;;5107740;28;20205;-78
2020/12/02 01:15:51;;;;;;;10.18;5.95;;;;;12.90;101912.00;;;;5101979;28;20182;-78
2020/12/02 01:18:22;;;;;;;8.40;5.20;;;;;12.90;101908.00;;;;5084125;28;20202;-78
2020/12/02 01:20:56;;;;;;;8.38;5.15;;;;;12.90;101908.00;;;;5093707;28;20709;-78
2020/12/02 01:23:23;;;;;;;8.05;5.07;;;;;13.00;101915.00;;;;5108319;28;20650;-78
2020/12/02 01:25:51;;;;;;;9.38;5.18;;;;;13.00;101911.00;;;;5098562;28;20200;-78
2020/12/02 01:28:24;;;;;;;9.95;5.97;;;;;13.00;101916.00;;;;5072724;28;20222;-78
2020/12/02 01:30:52;;;;;;;11.43;5.63;;;;;13.00;101923.00;;;;5087475;28;20198;-78
2020/12/02 01:33:20;;;;;;;9.07;5.95;;;;;13.00;101921.00;;;;5087613;28;20209;-78
2020/12/02 01:35:49;;;;;;;9.10;5.28;;;;;13.00;101908.00;;;;5088025;28;20198;-78
2020/12/02 01:38:22;;;;;;;8.70;5.40;;;;;13.00;101913.00;;;;5087390;28;20591;-78
2020/12/02 01:40:51;;;;;;;8.93;5.68;;;;;13.00;101915.00;;;;5094925;28;20781;-78
2020/12/02 01:43:18;;;;;;;8.05;5.57;;;;;13.00;101905.00;;;;5108549;28;20193;-78
2020/12/02 01:45:48;;;;;;;11.52;5.25;;;;;13.00;101905.00;;;;5106749;28;20193;-78
2020/12/02 01:48:47;;;;;;;7.03;5.28;;;;;13.00;101895.00;;;;5106365;28;20711;-78
2020/12/02 01:51:25;;;;;;;9.00;4.95;;;;;13.00;101900.00;;;;5105698;28;20206;-78
2020/12/02 01:54:00;;;;;;;9.88;6.07;;;;;13.10;101917.00;;;;5093522;28;20229;-78
2020/12/02 01:56:36;;;;;;;7.85;5.13;;;;;13.10;101913.00;;;;5090687;28;20231;-78
2020/12/02 01:59:15;;;;;;;9.60;5.60;;;;;13.10;101917.00;;;;5091276;28;20730;-78
2020/12/02 02:01:54;;;;;;;10.02;6.13;;;;;13.00;101917.00;;;;5091038;28;20231;-78
2020/12/02 02:04:29;;;;;;;10.50;6.07;;;;;13.10;101925.00;;;;5091395;28;20237;-78
2020/12/02 02:07:09;;;;;;;8.02;5.20;;;;;13.00;101913.00;;;;5091301;28;20655;-78
2020/12/02 02:09:38;;;;;;;8.30;5.35;;;;;13.10;101911.00;;;;5091328;28;20206;-78
2020/12/02 02:12:27;;;;;;;8.95;5.30;;;;;13.10;101916.00;;;;5107585;28;20202;-78
2020/12/02 02:15:06;;;;;;;8.70;5.55;;;;;13.10;101922.00;;;;5094773;28;20559;-78
2020/12/02 02:17:33;;;;;;;11.10;5.78;;;;;13.10;101910.00;;;;5070596;28;20206;-78
2020/12/02 02:20:00;;;;;;;7.80;5.10;;;;;13.10;101908.00;;;;5078741;28;20203;-78
2020/12/02 02:22:28;;;;;;;8.73;5.65;;;;;13.10;101909.00;;;;5105263;28;20218;-78
2020/12/02 02:24:56;;;;;;;8.43;5.28;;;;;13.10;101908.00;;;;5111208;28;20686;-78
2020/12/02 02:27:27;;;;;;;10.48;5.68;;;;;13.10;101907.00;;;;5103793;28;20645;-78
2020/12/02 02:29:55;;;;;;;9.27;5.47;;;;;13.20;101910.00;;;;5109577;28;20189;-78
2020/12/02 02:32:24;;;;;;;9.23;5.65;;;;;13.20;101904.00;;;;5071945;28;20199;-78
2020/12/02 02:34:53;;;;;;;9.82;5.90;;;;;13.20;101902.00;;;;5085915;28;20197;-78
2020/12/02 02:37:22;;;;;;;9.27;5.03;;;;;13.10;101905.00;;;;5104013;28;20202;-78
2020/12/02 02:39:49;;;;;;;8.90;5.18;;;;;13.20;101902.00;;;;5087335;28;20198;-78
2020/12/02 02:42:31;;;;;;;8.27;5.07;;;;;13.10;101904.00;;;;5089523;28;20205;-79
2020/12/02 02:45:00;;;;;;;8.95;5.47;;;;;13.20;101907.00;;;;5090318;28;20707;-78
2020/12/02 02:47:27;;;;;;;8.38;5.25;;;;;13.20;101899.00;;;;5108505;28;21041;-77
2020/12/02 02:49:54;;;;;;;8.32;5.90;;;;;13.20;101901.00;;;;5109524;28;20200;-78
2020/12/02 02:52:21;;;;;;;9.35;5.38;;;;;13.20;101899.00;;;;5110527;28;20209;-78
2020/12/02 02:54:47;;;;;;;8.73;5.80;;;;;13.20;101894.00;;;;5110921;28;20202;-78
2020/12/02 02:57:14;;;;;;;8.63;5.57;;;;;13.20;101897.00;;;;5110464;28;20320;-79
2020/12/02 02:59:42;;;;;;;7.93;5.57;;;;;13.20;101889.00;;;;5109799;28;20252;-78
2020/12/02 03:02:12;;;;;;;7.55;5.05;;;;;13.20;101897.00;;;;5095518;28;20194;-78
2020/12/02 03:04:38;;;;;;;7.93;5.10;;;;;13.20;101889.00;;;;5090353;28;20234;-78
2020/12/02 03:07:13;;;;;;;7.53;5.15;;;;;13.20;101885.00;;;;5096102;28;20190;-78
2020/12/02 03:09:40;;;;;;;8.25;4.60;;;;;13.20;101882.00;;;;5110772;28;20649;-78
2020/12/02 03:12:07;;;;;;;6.65;4.45;;;;;13.20;101886.00;;;;5092862;28;20202;-78
2020/12/02 03:14:34;;;;;;;8.65;4.55;;;;;13.20;101886.00;;;;5089822;28;20202;-78
2020/12/02 03:17:02;;;;;;;8.32;5.25;;;;;13.20;101881.00;;;;5090017;28;20206;-78
2020/12/02 03:19:33;;;;;;;8.50;5.20;;;;;13.10;101880.00;;;;5090584;28;20198;-78
2020/12/02 03:22:05;;;;;;;8.68;5.28;;;;;13.10;101880.00;;;;5089442;28;20583;-78
2020/12/02 03:24:32;;;;;;;8.18;4.93;;;;;13.20;101882.00;;;;5089925;28;20229;-78
2020/12/02 03:26:59;;;;;;;10.75;5.70;;;;;13.20;101887.00;;;;5089764;28;20237;-77
2020/12/02 03:29:26;;;;;;;7.60;5.10;;;;;13.20;101881.00;;;;5089443;28;20671;-78
2020/12/02 03:31:53;;;;;;;8.45;5.38;;;;;13.20;101878.00;;;;5103503;28;20197;-78
2020/12/02 03:34:21;;;;;;;9.63;5.15;;;;;13.20;101875.00;;;;5106849;28;20198;-77
2020/12/02 03:36:49;;;;;;;9.52;5.00;;;;;13.20;101873.00;;;;5100767;28;20194;-77
2020/12/02 03:39:16;;;;;;;8.10;5.05;;;;;13.20;101872.00;;;;5085849;28;20194;-78
2020/12/02 03:41:44;;;;;;;8.13;5.28;;;;;13.20;101872.00;;;;5101909;28;20197;-77
2020/12/02 03:44:11;;;;;;;8.18;5.70;;;;;13.20;101871.00;;;;5110245;28;20229;-78
2020/12/02 03:46:38;;;;;;;7.88;5.47;;;;;13.20;101872.00;;;;5097776;28;20714;-78
2020/12/02 03:49:06;;;;;;;9.32;5.60;;;;;13.20;101870.00;;;;5090410;28;20202;-79
2020/12/02 03:51:34;;;;;;;8.18;4.78;;;;;13.20;101872.00;;;;5089116;28;20213;-78
2020/12/02 03:54:01;;;;;;;10.50;5.60;;;;;13.20;101864.00;;;;5100784;28;20262;-78
2020/12/02 03:56:29;;;;;;;7.55;4.70;;;;;13.20;101879.00;;;;5109942;28;20209;-78
2020/12/02 03:58:55;;;;;;;8.70;4.70;;;;;13.20;101870.00;;;;5109130;28;20236;-78
2020/12/02 04:01:22;;;;;;;8.43;5.40;;;;;13.20;101870.00;;;;5100049;28;20193;-77
2020/12/02 04:03:49;;;;;;;8.13;5.05;;;;;13.20;101864.00;;;;5108659;28;20559;-77
2020/12/02 04:06:17;;;;;;;12.73;6.43;;;;;13.20;101872.00;;;;5100588;28;20689;-77
2020/12/02 04:08:45;;;;;;;8.88;5.90;;;;;13.20;101869.00;;;;5094449;28;20200;-77
2020/12/02 04:11:14;;;;;;;7.80;5.05;;;;;13.10;101870.00;;;;5096063;28;20209;-77
2020/12/02 04:13:41;;;;;;;9.00;5.28;;;;;13.20;101864.00;;;;5089816;28;20365;-77
2020/12/02 04:16:08;;;;;;;8.05;5.68;;;;;13.20;101850.00;;;;5089277;28;20198;-77
2020/12/02 04:18:34;;;;;;;9.77;5.65;;;;;13.20;101854.00;;;;5088692;28;20202;-77
2020/12/02 04:21:01;;;;;;;10.10;5.28;;;;;13.20;101850.00;;;;5088406;28;20202;-77
2020/12/02 04:23:28;;;;;;;11.10;5.72;;;;;13.20;101843.00;;;;5088860;28;20205;-77
2020/12/02 04:25:56;;;;;;;9.50;5.47;;;;;13.10;101842.00;;;;5088678;28;20748;-77
2020/12/02 04:28:22;;;;;;;9.75;5.07;;;;;13.10;101854.00;;;;5088912;28;20202;-77
2020/12/02 04:30:49;;;;;;;7.93;4.93;;;;;13.10;101848.00;;;;5088656;28;20217;-77
2020/12/02 04:33:17;;;;;;;8.80;4.82;;;;;13.10;101852.00;;;;5088844;28;20209;-77
2020/12/02 04:35:44;;;;;;;10.27;5.78;;;;;13.10;101849.00;;;;5088540;28;20218;-77
2020/12/02 04:38:11;;;;;;;9.55;5.63;;;;;13.10;101850.00;;;;5088071;28;20201;-77
2020/12/02 04:40:40;;;;;;;7.38;4.47;;;;;13.10;101850.00;;;;5088850;28;20637;-77
2020/12/02 04:43:16;;;;;;;10.43;5.50;;;;;13.10;101845.00;;;;5088203;28;20202;-77
2020/12/02 04:45:43;;;;;;;8.00;5.18;;;;;13.20;101837.00;;;;5088027;28;20248;-77
2020/12/02 04:48:14;;;;;;;8.98;5.32;;;;;13.10;101848.00;;;;5088142;28;20229;-77
2020/12/02 04:50:41;;;;;;;9.25;5.25;;;;;13.10;101841.00;;;;5088419;28;20198;-77
2020/12/02 04:53:14;;;;;;;8.75;5.05;;;;;13.10;101843.00;;;;5087946;28;20213;-77
2020/12/02 04:55:43;;;;;;;7.38;5.03;;;;;13.10;101842.00;;;;5087613;28;20206;-77
2020/12/02 04:58:28;;;;;;;8.85;5.18;;;;;13.00;101841.00;;;;5088126;28;20238;-77
2020/12/02 05:01:12;;;;;;;8.88;5.30;;;;;13.10;101836.00;;;;5088013;28;20209;-77
2020/12/02 05:03:47;;;;;;;6.93;4.55;;;;;13.00;101837.00;;;;5087593;28;20567;-77
2020/12/02 05:06:25;;;;;;;7.20;4.78;;;;;13.00;101840.00;;;;5088544;28;20204;-78
2020/12/02 05:09:03;;;;;;;7.43;4.55;;;;;13.10;101836.00;;;;5087810;28;20982;-78
2020/12/02 05:11:30;;;;;;;8.13;4.47;;;;;13.10;101835.00;;;;5096271;28;20212;-78
2020/12/02 05:14:03;;;;;;;7.65;4.75;;;;;13.10;101835.00;;;;5108121;28;20586;-77
2020/12/02 05:16:30;;;;;;;8.52;5.43;;;;;13.10;101837.00;;;;5100971;28;20209;-78
2020/12/02 05:19:01;;;;;;;9.10;5.38;;;;;13.10;101830.00;;;;5097538;28;20204;-77
2020/12/02 05:21:40;;;;;;;9.38;5.50;;;;;13.00;101830.00;;;;5108702;28;20204;-78
2020/12/02 05:24:09;;;;;;;8.43;4.95;;;;;13.10;101831.00;;;;5107858;28;20217;-77
2020/12/02 05:26:38;;;;;;;8.60;5.13;;;;;13.00;101834.00;;;;5108761;28;20190;-77
2020/12/02 05:29:29;;;;;;;6.18;4.18;;;;;13.00;101825.00;;;;5112777;28;20186;-77
2020/12/02 05:32:03;;;;;;;7.88;4.82;;;;;13.00;101833.00;;;;5112628;28;20189;-77
2020/12/02 05:34:33;;;;;;;7.10;5.03;;;;;13.00;101828.00;;;;5107574;28;20201;-77
2020/12/02 05:37:04;;;;;;;9.75;5.32;;;;;13.00;101823.00;;;;5091954;28;20210;-77
2020/12/02 05:39:41;;;;;;;8.38;5.13;;;;;13.00;101826.00;;;;5091926;28;20205;-77
2020/12/02 05:42:18;;;;;;;8.38;5.63;;;;;13.00;101826.00;;;;5092594;28;20204;-77
2020/12/02 05:44:46;;;;;;;8.50;5.05;;;;;13.00;101823.00;;;;5091201;28;20229;-77
2020/12/02 05:47:17;;;;;;;8.27;5.25;;;;;13.00;101819.00;;;;5091528;28;20217;-77
2020/12/02 05:49:50;;;;;;;9.23;5.45;;;;;13.00;101815.00;;;;5110637;28;20200;-77
2020/12/02 05:52:23;;;;;;;9.25;5.30;;;;;13.00;101817.00;;;;5071669;28;20210;-77
2020/12/02 05:54:55;;;;;;;7.70;4.63;;;;;13.00;101817.00;;;;5071310;28;20669;-77
2020/12/02 05:57:21;;;;;;;9.10;5.38;;;;;13.10;101816.00;;;;5070833;28;20230;-77
2020/12/02 05:59:51;;;;;;;7.93;5.13;;;;;13.00;101823.00;;;;5070831;28;20191;-77
2020/12/02 06:02:20;;;;;;;9.68;5.22;;;;;13.00;101817.00;;;;5109532;28;20212;-77
2020/12/02 06:04:51;;;;;;;9.80;5.15;;;;;13.00;101817.00;;;;5111320;28;20229;-77
2020/12/02 06:07:18;;;;;;;11.25;5.75;;;;;13.00;101811.00;;;;5106607;28;20201;-78
2020/12/02 06:09:47;;;;;;;9.32;6.10;;;;;13.00;101810.00;;;;5102467;28;20206;-77
2020/12/02 06:12:15;;;;;;;8.48;5.53;;;;;13.00;101803.00;;;;5111560;28;20671;-77
2020/12/02 06:14:42;;;;;;;8.70;5.38;;;;;13.00;101800.00;;;;5111215;28;20209;-77
2020/12/02 06:17:20;;;;;;;7.63;5.32;;;;;13.00;101802.00;;;;5108600;28;20201;-78
2020/12/02 06:19:50;;;;;;;10.23;4.70;;;;;13.00;101805.00;;;;5098597;28;20193;-77
2020/12/02 06:22:35;;;;;;;8.30;5.25;;;;;12.90;101804.00;;;;5095316;28;20251;-77
2020/12/02 06:25:02;;;;;;;8.95;5.38;;;;;13.00;101795.00;;;;5090946;28;20234;-78
2020/12/02 06:27:41;;;;;;;10.18;5.68;;;;;12.90;101806.00;;;;5106980;28;20570;-78
2020/12/02 06:30:18;;;;;;;7.53;5.20;;;;;12.90;101800.00;;;;5111641;28;20197;-78
2020/12/02 06:33:00;;;;;;;10.05;5.53;;;;;12.90;101800.00;;;;5111153;28;20562;-77
2020/12/02 06:35:27;;;;;;;9.52;5.35;;;;;13.00;101795.00;;;;5104532;28;20691;-77
2020/12/02 06:38:21;;;;;;;8.55;5.57;;;;;12.80;101786.00;;;;5091466;28;20194;-77
2020/12/02 06:41:09;;;;;;;11.02;5.60;;;;;12.90;101790.00;;;;5100469;28;20193;-76
2020/12/02 06:43:47;;;;;;;9.25;5.68;;;;;12.90;101791.00;;;;5076425;28;20609;-78
2020/12/02 06:46:14;;;;;;;9.35;5.35;;;;;13.00;101792.00;;;;5090291;28;20233;-78
2020/12/02 06:48:42;;;;;;;9.25;6.25;;;;;13.00;101785.00;;;;5084922;28;20210;-79
2020/12/02 06:51:11;;;;;;;10.98;6.03;;;;;13.00;101785.00;;;;5086188;28;20214;-78
2020/12/02 06:53:38;;;;;;;9.35;5.15;;;;;13.00;101788.00;;;;5097654;28;20190;-78
2020/12/02 06:56:06;;;;;;;11.63;5.82;;;;;13.00;101786.00;;;;5091436;28;20198;-77
2020/12/02 06:58:33;;;;;;;9.48;5.60;;;;;13.00;101785.00;;;;5091363;28;20225;-78
2020/12/02 07:01:03;;;;;;;9.07;5.82;;;;;13.00;101778.00;;;;5111724;28;20213;-79
2020/12/02 07:03:33;;;;;;;9.18;6.00;;;;;13.00;101780.00;;;;5100742;28;20189;-77
2020/12/02 07:06:13;;;;;;;8.15;4.70;;;;;12.90;101783.00;;;;5109793;28;20229;-75
2020/12/02 07:08:40;;;;;;;11.10;5.95;;;;;13.00;101782.00;;;;5068919;28;20206;-76
2020/12/02 07:11:14;;;;;;;11.80;6.50;;;;;12.90;101775.00;;;;5097817;28;20197;-75
2020/12/02 07:13:43;;;;;;;10.95;5.65;;;;;13.00;101773.00;;;;5110355;28;20747;-76
2020/12/02 07:16:12;;;;;;;11.60;5.97;;;;;12.90;101779.00;;;;5097257;28;20537;-76
2020/12/02 07:18:39;;;;;;;10.75;6.60;;;;;13.00;101773.00;;;;5089806;28;20701;-77
2020/12/02 07:21:20;;;;;;;12.23;6.03;;;;;12.90;101775.00;;;;5091085;28;20675;-76
2020/12/02 07:23:46;;;;;;;9.50;5.03;;;;;12.90;101784.00;;;;5098014;28;20196;-76
2020/12/02 07:26:13;;;;;;;10.38;5.55;;;;;12.90;101784.00;;;;5110237;28;20224;-77
2020/12/02 07:28:40;;;;;;;9.25;5.50;;;;;12.90;101781.00;;;;5102622;28;20205;-76
2020/12/02 07:31:17;;;;;;;10.30;6.50;;;;;12.90;101787.00;;;;5089355;28;20655;-76
2020/12/02 07:33:59;;;;;;;9.55;4.82;;;;;12.90;101772.00;;;;5093787;28;20198;-76
2020/12/02 07:36:30;;;;;;;10.55;5.45;;;;;12.90;101775.00;;;;5069336;28;20206;-76
2020/12/02 07:39:01;;;;;;;10.45;5.53;;;;;12.90;101786.00;;;;5091288;28;20194;-76
2020/12/02 07:41:28;;;;;;;10.38;6.28;;;;;12.90;101775.00;;;;5100323;28;20202;-77
2020/12/02 07:43:55;;;;;;;13.10;6.45;;;;;12.90;101767.00;;;;5101793;28;20572;-76
2020/12/02 07:46:23;;;;;;;10.65;5.90;;;;;12.90;101761.00;;;;5088589;28;20233;-76
2020/12/02 07:48:53;;;;;;;9.77;5.72;;;;;12.90;101765.00;;;;5096517;28;20201;-77
2020/12/02 07:51:23;;;;;;;11.07;5.18;;;;;12.90;101763.00;;;;5098246;28;20205;-77
2020/12/02 07:53:55;;;;;;;11.90;6.05;;;;;12.90;101766.00;;;;5091050;28;20229;-77
2020/12/02 07:56:28;;;;;;;11.18;5.88;;;;;12.90;101766.00;;;;5089066;28;20194;-77
2020/12/02 07:58:57;;;;;;;9.95;5.70;;;;;12.90;101757.00;;;;5109108;28;20715;-77
2020/12/02 08:01:45;;;;;;;11.25;6.03;;;;;13.00;101767.00;;;;5097616;28;20206;-77
2020/12/02 08:04:28;;;;;;;9.98;5.55;;;;;12.90;101759.00;;;;5089388;28;20206;-77
2020/12/02 08:07:01;;;;;;;10.25;5.97;;;;;12.90;101756.00;;;;5082547;28;20197;-76
2020/12/02 08:09:29;;;;;;;10.63;6.00;;;;;13.00;101754.00;;;;5088724;28;20243;-77
2020/12/02 08:11:59;;;;;;;11.93;6.75;;;;;12.90;101751.00;;;;5092393;28;20213;-77
2020/12/02 08:14:28;;;;;;;10.38;6.35;;;;;13.00;101759.00;;;;5089097;28;20201;-77
2020/12/02 08:17:01;;;;;;;10.40;5.32;;;;;12.90;101756.00;;;;5086154;28;20194;-76
2020/12/02 08:19:34;;;;;;;10.23;5.78;;;;;13.00;101755.00;;;;5103991;28;20193;-77
2020/12/02 08:22:01;;;;;;;13.25;6.45;;;;;13.00;101753.00;;;;5096053;28;20194;-78
2020/12/02 08:24:38;;;;;;;11.68;6.07;;;;;12.90;101748.00;;;;5089122;28;20564;-76
2020/12/02 08:27:05;;;;;;;10.38;6.47;;;;;13.00;101750.00;;;;5088935;28;20574;-77
2020/12/02 08:29:34;;;;;;;11.32;5.60;;;;;13.00;101753.00;;;;5094249;28;20217;-77
2020/12/02 08:32:08;;;;;;;14.40;6.60;;;;;13.00;101756.00;;;;5094529;28;20194;-78
2020/12/02 08:34:37;;;;;;;11.43;5.63;;;;;13.00;101751.00;;;;5088131;28;20686;-77
2020/12/02 08:37:26;;;;;;;10.65;5.53;;;;;12.90;101746.00;;;;5108871;28;20193;-77
2020/12/02 08:39:55;;;;;;;12.75;6.03;;;;;13.00;101736.00;;;;5087968;28;20244;-77
2020/12/02 08:42:27;;;;;;;11.35;6.65;;;;;13.00;101727.00;;;;5088491;28;20201;-77
2020/12/02 08:45:11;;;;;;;10.18;6.05;;;;;12.90;101728.00;;;;5100135;28;20221;-77
2020/12/02 08:47:37;;;;;;;9.82;5.57;;;;;13.00;101732.00;;;;5103925;28;20220;-77
2020/12/02 08:50:06;;;;;;;12.25;6.35;;;;;13.00;101729.00;;;;5094816;28;20208;-78
2020/12/02 08:52:32;;;;;;;12.18;6.53;;;;;13.00;101723.00;;;;5103277;28;20197;-77
2020/12/02 08:55:00;;;;;;;11.18;6.15;;;;;13.00;101723.00;;;;5099550;28;20203;-78
2020/12/02 08:57:27;;;;;;;13.68;6.25;;;;;13.00;101732.00;;;;5088523;28;20676;-78
2020/12/02 08:59:53;;;;;;;11.50;5.85;;;;;13.10;101730.00;;;;5089197;28;20198;-77
2020/12/02 09:02:20;;;;;;;9.68;5.63;;;;;13.10;101726.00;;;;5088031;28;20214;-77
2020/12/02 09:04:48;;;;;;;9.90;5.53;;;;;13.10;101721.00;;;;5092735;28;20649;-77
2020/12/02 09:07:15;;;;;;;15.27;5.80;;;;;13.10;101715.00;;;;5080183;28;20664;-77
2020/12/02 09:09:42;;;;;;;13.27;6.40;;;;;13.10;101711.00;;;;5090121;28;20205;-77
2020/12/02 09:12:09;;;;;;;11.48;6.07;;;;;13.10;101708.00;;;;5106781;28;20197;-77
2020/12/02 09:14:36;;;;;;;14.48;6.80;;;;;13.10;101713.00;;;;5101064;28;20205;-78
2020/12/02 09:17:03;;;;;;;13.02;6.40;;;;;13.10;101712.00;;;;5093367;28;20200;-77
2020/12/02 09:19:30;;;;;;;12.18;6.00;;;;;13.10;101709.00;;;;5089778;28;20198;-77
2020/12/02 09:21:57;;;;;;;12.82;6.82;;;;;13.10;101703.00;;;;5088809;28;20612;-77
2020/12/02 09:24:23;;;;;;;12.15;6.35;;;;;13.10;101702.00;;;;5099674;28;20663;-77
2020/12/02 09:26:50;;;;;;;12.20;6.30;;;;;13.20;101704.00;;;;5089405;28;20566;-77
2020/12/02 09:29:18;;;;;;;14.07;7.05;;;;;13.20;101697.00;;;;5089661;28;20254;-76
2020/12/02 09:31:45;;;;;;;12.00;5.85;;;;;13.20;101690.00;;;;5094320;28;20198;-77
2020/12/02 09:34:12;;;;;;;12.30;5.90;;;;;13.20;101689.00;;;;5091571;28;20208;-77
2020/12/02 09:36:38;;;;;;;10.85;5.70;;;;;13.20;101691.00;;;;5098177;28;20757;-77
2020/12/02 09:39:06;;;;;;;11.98;6.68;;;;;13.20;101693.00;;;;5091953;28;20194;-77
2020/12/02 09:41:40;;;;;;;10.13;6.10;;;;;13.10;101688.00;;;;5088281;28;20187;-77
2020/12/02 09:44:21;;;;;;;12.95;5.53;;;;;13.10;101692.00;;;;5076572;28;20202;-76
2020/12/02 09:46:53;;;;;;;10.50;5.43;;;;;13.10;101686.00;;;;5087158;28;20221;-77
2020/12/02 09:49:21;;;;;;;12.38;6.53;;;;;13.20;101682.00;;;;5095303;28;20204;-77
2020/12/02 09:51:53;;;;;;;8.75;5.13;;;;;13.10;101691.00;;;;5091124;28;20202;-75
2020/12/02 09:54:20;;;;;;;13.15;6.45;;;;;13.20;101682.00;;;;5090244;28;20194;-76
2020/12/02 09:56:47;;;;;;;12.68;6.82;;;;;13.20;101682.00;;;;5086784;28;20210;-75
2020/12/02 09:59:14;;;;;;;12.52;6.18;;;;;13.20;101679.00;;;;5094333;28;20544;-75
2020/12/02 10:01:59;;;;;;;12.55;6.43;;;;;13.10;101677.00;;;;5104292;28;20199;-75
2020/12/02 10:04:51;;;;;;;12.30;5.65;;;;;13.10;101664.00;;;;5081674;28;20190;-75
2020/12/02 10:07:44;;;;;;;13.95;6.95;;;;;13.10;101658.00;;;;5097005;28;20198;-75
2020/12/02 10:10:33;;;;;;;10.65;5.70;;;;;13.10;101658.00;;;;5087588;28;20213;-75
2020/12/02 10:13:28;;;;;;;13.23;6.53;;;;;13.20;101648.00;;;;5088374;28;20209;-75
2020/12/02 10:16:06;;;;;;;14.52;5.75;;;;;13.20;101644.00;;;;5096339;28;20660;-75
2020/12/02 10:19:19;;;;;;;12.95;6.53;;;;;13.10;101641.00;;;;5110901;28;20205;-75
2020/12/02 10:22:16;;;;;;;15.60;6.80;;;;;13.10;101640.00;;;;5096340;28;20309;-78
2020/12/02 10:25:06;;;;;;;16.75;6.53;;;;;13.10;101641.00;;;;5105765;28;20571;-76
2020/12/02 10:28:09;;;;;;;12.55;5.88;;;;;13.10;101631.00;;;;5092882;28;20202;-76
2020/12/02 10:30:45;;;;;;;9.68;5.75;;;;;13.20;101629.00;;;;5091196;28;20226;-75
2020/12/02 10:33:29;;;;;;;13.38;6.20;;;;;13.10;101637.00;;;;5102528;28;20194;-76
2020/12/02 10:35:58;;;;;;;11.45;4.95;;;;;13.20;101630.00;;;;5096056;28;20200;-76
2020/12/02 10:38:30;;;;;;;10.35;6.22;;;;;13.20;101631.00;;;;5101570;28;20186;-76
2020/12/02 10:41:08;;;;;;;13.38;7.32;;;;;13.20;101629.00;;;;5101571;28;20201;-76
2020/12/02 10:43:44;;;;;;;13.05;6.50;;;;;13.20;101621.00;;;;5086295;28;20183;-76
2020/12/02 10:46:23;;;;;;;12.35;6.43;;;;;13.20;101621.00;;;;5082985;28;20238;-76
2020/12/02 10:48:57;;;;;;;13.70;6.55;;;;;13.30;101612.00;;;;5101380;28;20648;-76
2020/12/02 10:51:30;;;;;;;12.40;6.53;;;;;13.30;101607.00;;;;5110018;28;20254;-76
2020/12/02 10:54:00;;;;;;;12.20;6.82;;;;;13.30;101617.00;;;;5103039;28;20666;-76
2020/12/02 10:56:27;;;;;;;14.38;6.63;;;;;13.30;101602.00;;;;5091749;28;20213;-76
2020/12/02 10:58:56;;;;;;;12.95;7.07;;;;;13.30;101594.00;;;;5091431;28;20599;-76
2020/12/02 11:01:24;;;;;;;11.68;6.25;;;;;13.30;101586.00;;;;5093276;28;20200;-76
2020/12/02 11:03:50;;;;;;;16.42;7.63;;;;;13.30;101585.00;;;;5091656;28;20202;-76
2020/12/02 11:06:35;;;;;;;10.15;6.03;;;;;13.20;101583.00;;;;5090469;28;20237;-76
2020/12/02 11:09:28;;;;;;;14.48;6.97;;;;;13.20;101575.00;;;;5090378;28;20983;-76
2020/12/02 11:12:11;;;;;;;11.93;6.15;;;;;13.20;101569.00;;;;5102474;28;20194;-76
2020/12/02 11:15:08;;;;;;;10.95;6.00;;;;;13.20;101566.00;;;;5096088;28;20205;-75
2020/12/02 11:17:53;;;;;;;16.20;6.50;;;;;13.30;101556.00;;;;5094837;28;20205;-77
2020/12/02 11:20:26;;;;;;;12.02;6.45;;;;;13.30;101556.00;;;;5094993;28;20212;-76
2020/12/02 11:23:03;;;;;;;9.85;5.15;;;;;13.30;101553.00;;;;5091153;28;20280;-76
2020/12/02 11:25:42;;;;;;;10.35;5.60;;;;;13.30;101541.00;;;;5091281;28;20240;-78
2020/12/02 11:28:09;;;;;;;13.50;6.15;;;;;13.40;101542.00;;;;5088567;28;20217;-78
2020/12/02 11:30:38;;;;;;;10.63;6.00;;;;;13.40;101542.00;;;;5092205;28;20194;-78
2020/12/02 11:33:32;;;;;;;11.10;6.00;;;;;13.30;101535.00;;;;5093073;28;20202;-78
2020/12/02 11:36:35;;;;;;;11.23;6.03;;;;;13.30;101530.00;;;;5074650;28;20240;-78
2020/12/02 11:39:20;;;;;;;11.85;6.30;;;;;13.40;101532.00;;;;5083560;28;20202;-78
2020/12/02 11:41:54;;;;;;;9.35;5.93;;;;;13.40;101524.00;;;;5084186;28;20187;-79
2020/12/02 11:44:34;;;;;;;12.95;6.90;;;;;13.40;101521.00;;;;5085493;28;20252;-79
2020/12/02 11:47:12;;;;;;;11.85;7.32;;;;;13.40;101511.00;;;;5079466;28;20225;-78
2020/12/02 11:49:44;;;;;;;13.02;6.45;;;;;13.50;101514.00;;;;5097865;28;20201;-78
2020/12/02 11:52:20;;;;;;;11.85;6.75;;;;;13.40;101512.00;;;;5082087;28;20198;-79
2020/12/02 11:54:48;;;;;;;10.55;5.57;;;;;13.50;101511.00;;;;5094138;28;20705;-79
2020/12/02 11:57:14;;;;;;;9.48;5.07;;;;;13.50;101503.00;;;;5077986;28;20474;-78
2020/12/02 11:59:41;;;;;;;10.93;6.00;;;;;13.50;101507.00;;;;5100836;28;20561;-79
2020/12/02 12:02:35;;;;;;;10.60;5.78;;;;;13.40;101502.00;;;;5090282;28;20194;-78
2020/12/02 12:05:12;;;;;;;10.23;6.13;;;;;13.50;101493.00;;;;5088946;28;20706;-78
2020/12/02 12:07:47;;;;;;;12.43;6.03;;;;;13.50;101490.00;;;;5106604;28;20193;-79
2020/12/02 12:10:21;;;;;;;10.88;6.10;;;;;13.50;101487.00;;;;5109421;28;20193;-78
2020/12/02 12:13:04;;;;;;;10.75;6.10;;;;;13.50;101485.00;;;;5089280;28;20202;-79
2020/12/02 12:15:35;;;;;;;10.75;5.53;;;;;13.50;101477.00;;;;5077147;28;20205;-78
2020/12/02 12:18:07;;;;;;;11.77;6.30;;;;;13.50;101472.00;;;;5098465;28;20197;-79
2020/12/02 12:20:37;;;;;;;12.82;6.20;;;;;13.50;101468.00;;;;5083559;28;20209;-79
2020/12/02 12:23:13;;;;;;;10.25;5.85;;;;;13.50;101459.00;;;;5091014;28;20194;-79
2020/12/02 12:25:41;;;;;;;11.32;5.65;;;;;13.50;101461.00;;;;5087258;28;21006;-78
2020/12/02 12:28:13;;;;;;;9.60;5.78;;;;;13.50;101451.00;;;;5095609;28;20252;-77